Lamar, Pennsylvania
Current Conditions -  °F | °C
As of 11:15 PM on Friday 24 Oct 2014 (Local Time) from KUNV Reporting Station
Clear Clear  
Wind Chill: 46°   Ceiling: Unl
Heat Index: 48°   Visibility: 10mi
Dew Point: 38°   Wind: 5mph
Humidity: 68%   Direction: 260°W
Pressure: 29.97"   Gusts: NA
Location:  41.02°N, 77.53°W
Report Text: KUNV 250315Z AUTO 26004KT 10SM CLR 09/03 A2997 RMK AO2 T00890033
Loading
Personal Weather Stations






























Interactive Weather Map
Tropical Storm Tracking
New forecast layout! Learn more

10-Day Weather Forecast

Advertisements
Track Severe Weather on mobile